Wainwright, Missouri
Current Conditions -  °F | °C
As of 9:53 AM on Thursday 27 Nov 2014 (Local Time) from KJEF Reporting Station
Overcast Overcast  
Wind Chill: 23°   Ceiling: 1900
Heat Index: 31°   Visibility: 9mi
Dew Point: 23°   Wind: 8mph
Humidity: 72%   Direction: 280°W
Pressure: 30.53"   Gusts: NA
Location:  38.6152°N, 92.0964°W
Report Text: KJEF 271553Z 28007KT 9SM OVC019 M01/M05 A3053 RMK AO2 SLP335 T10061050 $
Loading
Personal Weather Stations






























Interactive Weather Map New forecast layout! Learn more

10-Day Weather Forecast

Advertisements
Track Severe Weather on mobile